createdAt,value
2017-05-30T00:00:17.200Z,21.43
2017-05-30T00:02:45.552Z,21.35
2017-05-30T00:05:14.040Z,20.25
2017-05-30T00:07:42.397Z,21.00
2017-05-30T00:18:51.275Z,18.93
2017-05-30T00:21:19.674Z,21.95
2017-05-30T00:23:47.264Z,20.00
2017-05-30T00:26:15.660Z,20.20
2017-05-30T00:28:44.017Z,21.88
2017-05-30T00:31:12.389Z,20.60
2017-05-30T00:33:40.131Z,21.33
2017-05-30T00:36:08.480Z,19.62
2017-05-30T00:38:36.849Z,20.52
2017-05-30T00:41:05.316Z,21.57
2017-05-30T00:43:33.661Z,19.82
2017-05-30T00:46:02.012Z,20.77
2017-05-30T00:48:30.463Z,19.75
2017-05-30T00:50:58.807Z,21.98
2017-05-30T00:53:27.157Z,21.88
2017-05-30T00:55:55.738Z,19.05
2017-05-30T00:58:24.084Z,18.55
2017-05-30T01:00:52.438Z,21.23
2017-05-30T01:03:20.849Z,19.63
2017-05-30T01:05:49.190Z,20.43
2017-05-30T01:08:17.566Z,19.63
2017-05-30T01:10:45.977Z,23.03
2017-05-30T01:13:14.320Z,20.80
2017-05-30T01:15:42.675Z,23.72
2017-05-30T01:18:11.070Z,20.83
2017-05-30T01:20:39.410Z,20.93
2017-05-30T01:23:07.784Z,21.83
2017-05-30T01:25:36.303Z,19.68
2017-05-30T01:28:04.652Z,22.72
2017-05-30T01:30:32.995Z,22.82
2017-05-30T01:33:01.369Z,22.97
2017-05-30T01:35:29.711Z,24.53
2017-05-30T01:37:58.058Z,20.40
2017-05-30T01:40:26.541Z,22.62
2017-05-30T01:42:54.902Z,20.37
2017-05-30T01:45:23.261Z,21.77
2017-05-30T01:47:51.641Z,20.50
2017-05-30T01:50:19.992Z,19.27
2017-05-30T01:52:48.327Z,22.80
2017-05-30T01:55:16.863Z,21.18
2017-05-30T01:57:45.235Z,21.93
2017-05-30T02:00:13.573Z,24.03
2017-05-30T02:02:41.974Z,23.02
2017-05-30T02:05:10.340Z,22.45
2017-05-30T02:07:38.693Z,22.60
2017-05-30T02:10:07.217Z,21.60
2017-05-30T02:12:35.569Z,22.85
2017-05-30T02:15:03.152Z,19.77
2017-05-30T02:17:31.548Z,23.30
2017-05-30T02:19:59.121Z,23.50
2017-05-30T02:22:26.708Z,22.52
2017-05-30T02:24:55.286Z,22.97
2017-05-30T02:27:23.633Z,22.40
2017-05-30T02:29:51.977Z,24.20
2017-05-30T02:32:20.494Z,22.33
2017-05-30T02:34:48.834Z,23.28
2017-05-30T02:37:17.176Z,24.20
2017-05-30T02:39:45.684Z,21.63
2017-05-30T02:42:14.028Z,24.33
2017-05-30T02:44:42.388Z,22.47
2017-05-30T02:47:11.085Z,24.53
2017-05-30T02:49:39.423Z,22.62
2017-05-30T02:52:07.004Z,24.15
2017-05-30T02:54:35.371Z,23.80
2017-05-30T02:57:03.708Z,25.62
2017-05-30T02:59:32.665Z,24.17
2017-05-30T03:02:02.016Z,25.73
2017-05-30T03:04:30.364Z,22.93
2017-05-30T03:06:58.709Z,22.78
2017-05-30T03:09:27.109Z,23.38
2017-05-30T03:11:55.448Z,26.00
2017-05-30T03:14:23.817Z,25.37
2017-05-30T03:16:52.225Z,23.63
2017-05-30T03:19:20.588Z,25.65
2017-05-30T03:21:48.936Z,26.13
2017-05-30T03:24:17.484Z,25.60
2017-05-30T03:26:45.832Z,27.43
2017-05-30T03:29:14.173Z,25.68
2017-05-30T03:31:41.937Z,24.50
2017-05-30T03:34:10.296Z,24.90
2017-05-30T03:36:38.658Z,23.87
2017-05-30T03:39:07.169Z,24.37
2017-05-30T03:41:35.511Z,24.65
2017-05-30T03:44:03.863Z,23.88
2017-05-30T03:46:32.599Z,24.63
2017-05-30T03:49:00.950Z,23.28
2017-05-30T03:51:29.303Z,23.80
2017-05-30T03:53:57.852Z,21.15
2017-05-30T03:56:26.183Z,21.72
2017-05-30T03:58:54.525Z,26.05
2017-05-30T04:01:22.917Z,30.02
2017-05-30T04:03:51.258Z,28.97
2017-05-30T04:06:19.608Z,27.82
2017-05-30T04:08:48.012Z,23.90
2017-05-30T04:11:15.588Z,24.75
2017-05-30T04:13:43.926Z,29.07
2017-05-30T04:16:12.389Z,27.35
2017-05-30T04:18:40.723Z,24.58
2017-05-30T04:21:09.077Z,32.65
2017-05-30T04:23:37.599Z,32.27
2017-05-30T04:26:05.948Z,31.75
2017-05-30T04:28:41.960Z,30.47
2017-05-30T04:31:10.312Z,35.00
2017-05-30T04:33:38.681Z,31.28
2017-05-30T04:36:07.052Z,37.00
2017-05-30T04:38:35.400Z,35.68
2017-05-30T04:41:03.905Z,34.77
2017-05-30T04:43:32.265Z,38.87
2017-05-30T04:45:59.870Z,37.32
2017-05-30T04:48:28.394Z,39.63
2017-05-30T04:50:56.750Z,38.03
2017-05-30T04:53:25.490Z,34.63
2017-05-30T04:55:53.896Z,34.92
2017-05-30T04:58:22.232Z,33.70
2017-05-30T05:00:50.568Z,33.43
2017-05-30T05:03:19.241Z,32.98
2017-05-30T05:05:47.597Z,35.60
2017-05-30T05:08:15.940Z,34.47
2017-05-30T05:10:44.705Z,37.38
2017-05-30T05:13:12.268Z,33.12
2017-05-30T05:15:39.836Z,35.73
2017-05-30T05:18:08.316Z,34.68
2017-05-30T05:20:35.878Z,34.08
2017-05-30T05:23:04.248Z,34.52
2017-05-30T05:25:31.948Z,35.05
2017-05-30T05:28:00.288Z,34.00
2017-05-30T05:30:28.618Z,34.70
2017-05-30T05:32:57.084Z,31.03
2017-05-30T05:35:25.423Z,36.72
2017-05-30T05:37:53.765Z,30.58
2017-05-30T05:40:22.341Z,33.28
2017-05-30T05:42:50.669Z,31.73
2017-05-30T05:45:19.003Z,28.03
2017-05-30T05:47:47.615Z,31.68
2017-05-30T05:50:15.945Z,30.97
2017-05-30T05:52:44.273Z,30.93
2017-05-30T05:55:12.768Z,31.10
2017-05-30T05:57:41.099Z,30.07
2017-05-30T06:00:09.436Z,27.65
2017-05-30T06:02:37.817Z,30.55
2017-05-30T06:05:06.147Z,30.60
2017-05-30T06:07:34.471Z,26.83
2017-05-30T06:10:02.974Z,30.32
2017-05-30T06:12:31.319Z,26.70
2017-05-30T06:14:59.669Z,32.80
2017-05-30T06:17:28.359Z,35.13
2017-05-30T06:19:56.708Z,35.88
2017-05-30T06:22:24.277Z,30.73
2017-05-30T06:24:52.749Z,25.88
2017-05-30T06:27:21.083Z,30.53
2017-05-30T06:29:49.428Z,26.32
2017-05-30T06:32:17.917Z,27.37
2017-05-30T06:34:46.249Z,25.53
2017-05-30T06:37:14.591Z,28.45
2017-05-30T06:39:43.449Z,26.53
2017-05-30T06:42:11.811Z,28.35
2017-05-30T06:44:40.144Z,28.75
2017-05-30T06:47:08.689Z,29.43
2017-05-30T06:49:37.025Z,30.13
2017-05-30T06:52:05.360Z,30.80
2017-05-30T06:54:34.031Z,32.43
2017-05-30T06:57:02.572Z,29.35
2017-05-30T06:59:30.896Z,30.42
2017-05-30T07:01:59.419Z,30.80
2017-05-30T07:04:27.756Z,28.42
2017-05-30T07:06:56.102Z,28.32
2017-05-30T07:09:24.516Z,28.15
2017-05-30T07:11:52.861Z,29.53
2017-05-30T07:16:56.364Z,29.67
2017-05-30T07:19:24.709Z,29.23
2017-05-30T07:21:53.054Z,29.50
2017-05-30T07:24:21.524Z,32.22
2017-05-30T07:26:49.867Z,30.53
2017-05-30T07:29:18.208Z,30.10
2017-05-30T07:31:46.776Z,29.30
2017-05-30T07:34:15.128Z,32.55
2017-05-30T07:36:43.497Z,30.65
2017-05-30T07:39:11.871Z,33.52
2017-05-30T07:41:40.251Z,31.43
2017-05-30T07:44:08.586Z,35.53
2017-05-30T07:46:37.248Z,32.53
2017-05-30T07:49:05.580Z,30.90
2017-05-30T07:51:33.921Z,34.83
2017-05-30T07:54:02.576Z,31.63
2017-05-30T07:56:30.912Z,34.27
2017-05-30T07:58:59.240Z,33.85
2017-05-30T08:01:27.815Z,28.30
2017-05-30T08:03:56.159Z,29.27
2017-05-30T08:06:24.500Z,31.92
2017-05-30T08:08:53.058Z,32.03
2017-05-30T08:11:21.410Z,28.97
2017-05-30T08:13:49.796Z,31.84
2017-05-30T08:16:18.313Z,31.13
2017-05-30T08:18:46.664Z,34.02
2017-05-30T08:21:14.999Z,35.38
2017-05-30T08:23:43.851Z,30.58
2017-05-30T08:26:12.187Z,33.62
2017-05-30T08:28:40.524Z,33.80
2017-05-30T08:31:08.928Z,33.88
2017-05-30T08:33:37.272Z,26.88
2017-05-30T08:36:06.752Z,31.20
2017-05-30T08:38:35.345Z,34.60
2017-05-30T08:41:03.684Z,30.96
2017-05-30T08:43:32.023Z,36.10
2017-05-30T08:46:00.676Z,36.44
2017-05-30T08:48:29.015Z,40.90
2017-05-30T08:50:57.363Z,31.82
2017-05-30T08:53:25.752Z,33.80
2017-05-30T08:55:54.095Z,34.62
2017-05-30T08:58:22.440Z,37.76
2017-05-30T09:00:51.776Z,35.92
2017-05-30T09:03:20.949Z,40.02
2017-05-30T09:05:49.280Z,39.64
2017-05-30T09:08:18.140Z,43.20
2017-05-30T09:10:46.480Z,46.28
2017-05-30T09:13:14.820Z,52.04
2017-05-30T09:15:42.530Z,47.16
2017-05-30T09:18:10.871Z,41.60
2017-05-30T09:20:39.205Z,45.36
2017-05-30T09:23:07.791Z,45.76
2017-05-30T09:25:36.597Z,45.60
2017-05-30T09:28:04.944Z,44.02
2017-05-30T09:30:33.455Z,48.64
2017-05-30T09:33:01.798Z,44.86
2017-05-30T09:35:30.140Z,44.54
2017-05-30T09:37:58.692Z,42.96
2017-05-30T09:40:27.029Z,44.30
2017-05-30T09:42:55.382Z,37.68
2017-05-30T09:45:23.775Z,38.88
2017-05-30T09:47:52.107Z,37.74
2017-05-30T09:50:20.475Z,40.46
2017-05-30T09:52:48.944Z,40.50
2017-05-30T09:55:17.284Z,42.42
2017-05-30T09:57:45.611Z,41.08
2017-05-30T10:00:14.304Z,38.54
2017-05-30T10:02:42.700Z,29.78
2017-05-30T10:05:11.035Z,30.60
2017-05-30T10:07:39.715Z,25.98
2017-05-30T10:10:08.063Z,24.96
2017-05-30T10:12:36.396Z,24.40
2017-05-30T10:15:04.969Z,26.74
2017-05-30T10:17:33.304Z,25.36
2017-05-30T10:20:01.807Z,22.74
2017-05-30T10:22:30.215Z,29.16
2017-05-30T10:24:58.544Z,27.54
2017-05-30T10:27:26.916Z,27.44
2017-05-30T10:29:55.281Z,31.02
2017-05-30T10:32:23.622Z,33.56
2017-05-30T10:34:51.956Z,33.60
2017-05-30T10:37:20.609Z,29.58
2017-05-30T10:39:48.941Z,29.00
2017-05-30T10:42:17.280Z,28.60
2017-05-30T10:44:45.816Z,26.82
2017-05-30T10:47:14.149Z,28.50
2017-05-30T10:49:42.487Z,23.84
2017-05-30T10:52:11.071Z,23.56
2017-05-30T10:54:39.399Z,23.16
2017-05-30T10:57:07.729Z,18.68
2017-05-30T10:59:36.287Z,18.54
2017-05-30T11:02:04.613Z,15.64
2017-05-30T11:04:32.945Z,16.14
2017-05-30T11:07:01.629Z,16.28
2017-05-30T11:09:29.960Z,14.42
2017-05-30T11:11:58.287Z,16.40
2017-05-30T11:14:26.967Z,15.24
2017-05-30T11:16:55.291Z,15.54
2017-05-30T11:19:23.635Z,14.04
2017-05-30T11:21:52.085Z,15.90
2017-05-30T11:24:20.413Z,18.82
2017-05-30T11:26:48.744Z,15.74
2017-05-30T11:29:17.222Z,17.08
2017-05-30T11:31:45.550Z,16.28
2017-05-30T11:34:13.880Z,13.48
2017-05-30T11:36:42.396Z,14.32
2017-05-30T11:39:10.724Z,14.34
2017-05-30T11:41:39.048Z,16.92
2017-05-30T11:44:07.411Z,13.66
2017-05-30T11:46:36.298Z,13.34
2017-05-30T11:49:05.775Z,11.46
2017-05-30T11:51:34.388Z,10.32
2017-05-30T11:54:02.733Z,10.14
2017-05-30T11:56:31.072Z,10.02
2017-05-30T11:58:59.743Z,10.90
2017-05-30T12:01:28.071Z,12.14
2017-05-30T12:03:56.409Z,17.60
2017-05-30T12:06:24.873Z,18.00
2017-05-30T12:08:53.195Z,17.36
2017-05-30T12:11:21.528Z,19.78
2017-05-30T12:13:50.275Z,23.60
2017-05-30T12:16:18.608Z,25.80
2017-05-30T12:18:47.488Z,25.54
2017-05-30T12:21:15.879Z,29.18
2017-05-30T12:23:44.212Z,33.94
2017-05-30T12:26:12.542Z,37.70
2017-05-30T12:28:40.938Z,41.70
2017-05-30T12:31:09.271Z,43.20
2017-05-30T12:33:37.599Z,41.52
2017-05-30T12:36:06.223Z,41.42
2017-05-30T12:38:34.553Z,34.70
2017-05-30T12:41:02.915Z,31.02
2017-05-30T12:43:32.284Z,37.88
2017-05-30T12:46:00.636Z,36.16
2017-05-30T12:48:28.963Z,31.72
2017-05-30T12:50:57.640Z,34.02
2017-05-30T12:53:25.974Z,33.12
2017-05-30T12:55:54.354Z,32.72
2017-05-30T12:58:22.955Z,44.88
2017-05-30T13:00:50.545Z,41.32
2017-05-30T13:03:19.195Z,48.00
2017-05-30T13:05:47.723Z,44.64
2017-05-30T13:08:16.679Z,46.88
2017-05-30T13:10:45.040Z,44.06
2017-05-30T13:13:13.644Z,47.70
2017-05-30T13:15:41.995Z,46.88
2017-05-30T13:18:10.335Z,43.16
2017-05-30T13:20:39.860Z,40.56
2017-05-30T13:23:07.431Z,38.44
2017-05-30T13:25:35.776Z,41.34
2017-05-30T13:28:04.515Z,39.62
2017-05-30T13:30:32.855Z,41.22
2017-05-30T13:33:01.884Z,35.72
2017-05-30T13:35:30.471Z,38.14
2017-05-30T13:37:58.811Z,38.26
2017-05-30T13:40:27.137Z,31.72
2017-05-30T13:42:55.605Z,28.78
2017-05-30T13:45:23.980Z,29.82
2017-05-30T13:47:52.308Z,26.90
2017-05-30T13:50:20.680Z,32.82
2017-05-30T13:52:49.021Z,31.34
2017-05-30T13:55:17.351Z,29.92
2017-05-30T13:57:45.984Z,30.94
2017-05-30T14:00:14.321Z,29.04
2017-05-30T14:02:41.893Z,29.48
2017-05-30T14:05:09.664Z,28.14
2017-05-30T14:07:38.018Z,30.84
2017-05-30T14:10:06.343Z,26.46
2017-05-30T14:12:34.804Z,25.92
2017-05-30T14:15:03.157Z,26.02
2017-05-30T14:17:31.504Z,30.68
2017-05-30T14:20:00.003Z,33.54
2017-05-30T14:22:28.364Z,32.22
2017-05-30T14:24:56.691Z,35.06
2017-05-30T14:27:25.299Z,38.32
2017-05-30T14:29:53.632Z,39.06
2017-05-30T14:32:21.978Z,35.32
2017-05-30T14:34:50.473Z,38.10
2017-05-30T14:37:18.874Z,39.86
2017-05-30T14:39:47.254Z,37.80
2017-05-30T14:42:15.648Z,37.64
2017-05-30T14:44:44.008Z,38.70
2017-05-30T14:47:12.379Z,37.28
2017-05-30T14:49:40.904Z,40.58
2017-05-30T14:52:09.243Z,40.52
2017-05-30T14:54:37.582Z,38.80
2017-05-30T14:57:06.034Z,37.58
2017-05-30T14:59:34.357Z,41.02
2017-05-30T15:02:02.693Z,44.90
2017-05-30T15:04:31.164Z,49.58
2017-05-30T15:06:59.488Z,55.78
2017-05-30T15:09:27.820Z,65.10
2017-05-30T15:11:56.328Z,64.00
2017-05-30T15:14:24.663Z,78.48
2017-05-30T15:16:53.025Z,75.92
2017-05-30T15:19:21.521Z,80.02
2017-05-30T15:21:49.944Z,77.68
2017-05-30T15:24:18.286Z,74.17
2017-05-30T15:26:46.775Z,75.17
2017-05-30T15:29:15.133Z,65.88
2017-05-30T15:31:43.481Z,66.57
2017-05-30T15:34:12.008Z,69.22
2017-05-30T15:36:40.360Z,74.65
2017-05-30T15:39:08.704Z,73.78
2017-05-30T15:41:37.275Z,78.37
2017-05-30T15:44:05.622Z,77.05
2017-05-30T15:46:33.970Z,63.87
2017-05-30T15:49:02.492Z,71.08
2017-05-30T15:51:30.073Z,64.25
2017-05-30T15:53:58.424Z,63.27
2017-05-30T15:56:26.959Z,59.58
2017-05-30T15:58:55.307Z,54.50
2017-05-30T16:01:23.661Z,63.43
2017-05-30T16:03:52.145Z,51.70
2017-05-30T16:06:20.490Z,51.23
2017-05-30T16:08:48.868Z,45.63
2017-05-30T16:11:17.425Z,47.82
2017-05-30T16:13:45.765Z,43.28
2017-05-30T16:16:14.928Z,42.82
2017-05-30T16:18:43.665Z,37.60
2017-05-30T16:21:12.004Z,42.58
2017-05-30T16:23:40.370Z,40.10
2017-05-30T16:26:08.857Z,39.98
2017-05-30T16:28:37.225Z,39.16
2017-05-30T16:31:05.592Z,43.28
2017-05-30T16:33:34.113Z,35.65
2017-05-30T16:36:02.456Z,34.22
2017-05-30T16:38:30.810Z,31.67
2017-05-30T16:40:59.288Z,32.63
2017-05-30T16:43:28.359Z,32.58
2017-05-30T16:45:56.725Z,26.38
2017-05-30T16:48:25.243Z,26.50
2017-05-30T16:50:53.591Z,28.58
2017-05-30T16:53:21.944Z,23.84
2017-05-30T16:55:50.454Z,27.02
2017-05-30T16:58:18.816Z,27.78
2017-05-30T17:00:47.335Z,29.56
2017-05-30T17:03:15.865Z,25.02
2017-05-30T17:05:44.208Z,24.37
2017-05-30T17:08:12.559Z,24.77
2017-05-30T17:10:41.041Z,27.37
2017-05-30T17:13:09.391Z,25.03
2017-05-30T17:15:37.744Z,21.62
2017-05-30T17:18:06.265Z,29.95
2017-05-30T17:20:34.608Z,19.78
2017-05-30T17:23:02.968Z,21.20
2017-05-30T17:25:30.584Z,17.57
2017-05-30T17:27:58.929Z,19.62
2017-05-30T17:30:27.284Z,17.13
2017-05-30T17:32:55.772Z,23.37
2017-05-30T17:35:24.143Z,17.28
2017-05-30T17:37:52.493Z,16.23
2017-05-30T17:40:21.063Z,18.57
2017-05-30T17:42:49.756Z,19.93
2017-05-30T17:45:18.124Z,17.43
2017-05-30T17:47:46.523Z,19.63
2017-05-30T17:50:14.882Z,17.05
2017-05-30T17:52:43.248Z,19.88
2017-05-30T17:55:11.787Z,18.75
2017-05-30T17:57:40.152Z,18.07
2017-05-30T18:00:08.513Z,15.93
2017-05-30T18:02:36.913Z,13.03
2017-05-30T18:05:05.263Z,19.78
2017-05-30T18:07:33.609Z,18.15
2017-05-30T18:10:02.024Z,13.95
2017-05-30T18:12:29.619Z,14.98
2017-05-30T18:14:57.988Z,15.25
2017-05-30T18:17:26.408Z,14.75
2017-05-30T18:19:54.857Z,13.53
2017-05-30T18:22:23.340Z,13.10
2017-05-30T18:24:51.714Z,12.77
2017-05-30T18:27:20.073Z,12.93
2017-05-30T18:29:48.458Z,12.32
2017-05-30T18:32:17.242Z,11.35
2017-05-30T18:34:45.605Z,11.48
2017-05-30T18:37:13.986Z,12.22
2017-05-30T18:39:42.389Z,10.32
2017-05-30T18:42:10.775Z,11.20
2017-05-30T18:44:39.126Z,10.28
2017-05-30T18:47:07.530Z,10.95
2017-05-30T18:49:35.880Z,13.68
2017-05-30T18:52:04.242Z,12.63
2017-05-30T18:54:32.665Z,11.80
2017-05-30T18:57:01.008Z,12.10
2017-05-30T18:59:28.666Z,11.78
2017-05-30T19:01:57.065Z,9.60
2017-05-30T19:04:25.502Z,10.40
2017-05-30T19:06:53.847Z,9.07
2017-05-30T19:09:22.312Z,12.00
2017-05-30T19:11:50.659Z,11.27
2017-05-30T19:14:18.250Z,11.87
2017-05-30T19:16:46.655Z,13.82
2017-05-30T19:19:15.056Z,14.08
2017-05-30T19:21:43.596Z,14.65
2017-05-30T19:24:14.516Z,11.93
2017-05-30T19:26:47.582Z,12.55
2017-05-30T19:29:15.411Z,14.17
2017-05-30T19:31:47.629Z,13.38
2017-05-30T19:34:18.288Z,13.78
2017-05-30T19:36:47.504Z,12.68
2017-05-30T19:39:15.089Z,16.68
2017-05-30T19:41:43.482Z,14.12
2017-05-30T19:44:11.824Z,13.88
2017-05-30T19:46:40.161Z,14.82
2017-05-30T19:49:07.806Z,15.50
2017-05-30T19:51:36.150Z,18.80
2017-05-30T19:54:04.511Z,16.87
2017-05-30T19:56:33.003Z,20.50
2017-05-30T19:59:01.364Z,18.22
2017-05-30T20:01:29.870Z,25.07
2017-05-30T20:03:58.512Z,19.75
2017-05-30T20:06:26.856Z,18.83
2017-05-30T20:08:55.220Z,20.08
2017-05-30T20:11:23.695Z,21.48
2017-05-30T20:13:52.054Z,21.97
2017-05-30T20:16:20.441Z,23.75
2017-05-30T20:18:49.791Z,22.02
2017-05-30T20:21:18.146Z,29.32
2017-05-30T20:23:45.728Z,23.43
2017-05-30T20:26:14.416Z,21.57
2017-05-30T20:28:42.856Z,26.72
2017-05-30T20:31:11.226Z,24.10
2017-05-30T20:33:39.808Z,26.62
2017-05-30T20:36:08.148Z,23.82
2017-05-30T20:38:36.524Z,26.37
2017-05-30T20:41:05.298Z,26.10
2017-05-30T20:43:33.752Z,26.33
2017-05-30T20:46:02.109Z,24.27
2017-05-30T20:48:30.505Z,24.57
2017-05-30T20:50:58.865Z,24.25
2017-05-30T20:53:27.225Z,28.77
2017-05-30T20:55:55.755Z,28.72
2017-05-30T20:58:24.094Z,23.30
2017-05-30T21:00:52.453Z,27.23
2017-05-30T21:03:20.835Z,26.38
2017-05-30T21:05:49.189Z,24.82
2017-05-30T21:08:17.545Z,22.23
2017-05-30T21:10:46.065Z,26.35
2017-05-30T21:13:13.647Z,23.90
2017-05-30T21:15:41.999Z,31.20
2017-05-30T21:18:10.522Z,29.90
2017-05-30T21:20:38.868Z,27.77
2017-05-30T21:23:10.382Z,28.05
2017-05-30T21:25:38.732Z,31.12
2017-05-30T21:28:07.065Z,31.90
2017-05-30T21:30:34.681Z,31.90
2017-05-30T21:33:02.272Z,32.28
2017-05-30T21:35:29.839Z,29.55
2017-05-30T21:37:58.352Z,31.65
2017-05-30T21:40:26.745Z,33.18
2017-05-30T21:42:55.074Z,35.78
2017-05-30T21:45:25.617Z,34.65
2017-05-30T21:47:53.972Z,29.85
2017-05-30T21:50:22.331Z,34.45
2017-05-30T21:52:50.835Z,38.65
2017-05-30T21:55:19.958Z,31.38
2017-05-30T21:57:48.299Z,36.80
2017-05-30T22:00:16.664Z,28.40
2017-05-30T22:02:45.048Z,33.63
2017-05-30T22:05:13.403Z,31.88
2017-05-30T22:07:41.963Z,35.22
2017-05-30T22:10:10.308Z,36.68
2017-05-30T22:12:38.675Z,35.77
2017-05-30T22:15:07.039Z,32.93
2017-05-30T22:17:36.205Z,35.13
2017-05-30T22:20:04.572Z,36.67
2017-05-30T22:22:32.949Z,29.62
2017-05-30T22:25:01.290Z,30.35
2017-05-30T22:27:30.482Z,33.28
2017-05-30T22:29:59.285Z,31.17
2017-05-30T22:32:28.299Z,33.05
2017-05-30T22:34:59.231Z,29.25
2017-05-30T22:37:28.884Z,29.30
2017-05-30T22:39:56.495Z,30.27
2017-05-30T22:42:24.835Z,25.38
2017-05-30T22:44:53.359Z,28.27
2017-05-30T22:47:21.709Z,26.70
2017-05-30T22:49:49.501Z,27.47
2017-05-30T22:52:17.317Z,23.57
2017-05-30T22:54:45.663Z,26.80
2017-05-30T22:57:14.967Z,25.80
2017-05-30T22:59:43.547Z,23.65
2017-05-30T23:02:12.028Z,24.67
2017-05-30T23:04:40.370Z,21.52
2017-05-30T23:07:09.076Z,19.35
2017-05-30T23:09:37.516Z,18.30
2017-05-30T23:12:05.862Z,23.13
2017-05-30T23:14:34.429Z,22.70
2017-05-30T23:17:02.838Z,19.10
2017-05-30T23:19:31.244Z,24.37
2017-05-30T23:21:59.775Z,23.27
2017-05-30T23:24:28.126Z,23.45
2017-05-30T23:26:56.493Z,23.58
2017-05-30T23:29:25.384Z,21.52
2017-05-30T23:31:53.787Z,21.20
2017-05-30T23:34:22.149Z,18.35
2017-05-30T23:36:50.680Z,28.88
2017-05-30T23:39:19.020Z,21.63
2017-05-30T23:41:47.355Z,21.58
2017-05-30T23:44:15.887Z,24.05
2017-05-30T23:46:44.233Z,20.02
2017-05-30T23:49:12.568Z,29.00
2017-05-30T23:51:40.960Z,21.73
2017-05-30T23:54:09.303Z,22.32
2017-05-30T23:56:37.639Z,25.30
2017-05-30T23:59:05.404Z,26.87
